Main page
METAR-TAF:

METAR-TAF

Airports :

Lechfeld, Germany

Lechfeld Air Base

latitude: 48-11N, longitude: 010-52E, elevation: 555 m

Current weather observation

The report was made 53 minutes ago, at 15:20 UTC
Wind 9 kt from the Northeast
Temperature 17°C
Humidity 68%
Pressure 1021 hPa
Visibility 10 km or more
Few clouds at a height of 3000 ft

METAR: ETSL 261520Z 04009KT 9999 FEW030 17/11 Q1021 BLU+

Time: 18:13 (16:13 UTC)

Forecast

The report was made 24 hours and 38 minutes ago, at 15:35 UTC
Forecast valid from 25 at 14 UTC to 25 at 23 UTC
Wind 5 kt from the Northeast
Visibility: 1540 m
Few clouds at a height of 4000 ft

TAF: ETSL 251535Z 2514/2523 05005KT 9999 NSW FEW040 CANCEL 1540 BY ETGL

Weather observations and forecasts of more than 4000 airports (METAR and TAF reports).

The available stations are represented by yellow and red dots on the map.

Hover mouse over dot to see the name of the station.

Then click to see weather observations and forecasts.

To change the map : click on the green buttons with a black cross to zoom in, on the green button with a dash to zoom out, or on the green arrows for adjacent maps.


METAR-TAF: